createdAt,value
2023-04-02T00:01:01.480Z,8.68
2023-04-02T00:03:42.557Z,8.39
2023-04-02T00:06:33.149Z,8.46
2023-04-02T00:09:04.802Z,8.39
2023-04-02T00:11:37.541Z,8.40
2023-04-02T00:14:13.693Z,8.44
2023-04-02T00:16:40.981Z,8.48
2023-04-02T00:19:18.479Z,8.44
2023-04-02T00:21:47.540Z,8.40
2023-04-02T00:24:17.712Z,8.39
2023-04-02T00:26:50.547Z,8.50
2023-04-02T00:29:19.283Z,8.50
2023-04-02T00:31:49.294Z,8.34
2023-04-02T00:34:22.105Z,8.42
2023-04-02T00:36:51.218Z,8.50
2023-04-02T00:39:24.976Z,8.47
2023-04-02T00:41:58.856Z,8.37
2023-04-02T00:44:30.525Z,8.41
2023-04-02T00:46:57.989Z,8.45
2023-04-02T00:49:39.453Z,8.50
2023-04-02T00:52:18.849Z,8.49
2023-04-02T00:54:51.141Z,8.31
2023-04-02T00:57:25.752Z,8.31
2023-04-02T01:00:05.232Z,8.37
2023-04-02T01:02:34.375Z,8.34
2023-04-02T01:05:23.657Z,8.29
2023-04-02T01:08:14.920Z,8.36
2023-04-02T01:11:23.790Z,8.45
2023-04-02T01:13:53.532Z,8.42
2023-04-02T01:16:33.291Z,8.42
2023-04-02T01:19:28.691Z,8.28
2023-04-02T01:22:35.260Z,8.32
2023-04-02T01:25:04.715Z,8.37
2023-04-02T01:27:49.608Z,8.47
2023-04-02T01:30:18.436Z,8.50
2023-04-02T01:32:45.808Z,8.54
2023-04-02T01:35:13.020Z,8.54
2023-04-02T01:37:50.180Z,8.57
2023-04-02T01:40:44.037Z,8.65
2023-04-02T01:43:33.107Z,8.55
2023-04-02T01:46:06.811Z,8.61
2023-04-02T01:48:33.881Z,8.63
2023-04-02T01:51:05.558Z,8.58
2023-04-02T01:53:33.402Z,8.62
2023-04-02T01:56:04.927Z,8.62
2023-04-02T01:58:33.897Z,8.62
2023-04-02T02:01:08.493Z,8.59
2023-04-02T02:03:38.793Z,8.64
2023-04-02T02:06:06.847Z,8.65
2023-04-02T02:08:58.374Z,8.52
2023-04-02T02:11:28.567Z,8.59
2023-04-02T02:14:00.987Z,8.54
2023-04-02T02:16:31.964Z,8.51
2023-04-02T02:19:04.559Z,8.54
2023-04-02T02:21:42.431Z,8.44
2023-04-02T02:24:31.972Z,8.29
2023-04-02T02:27:37.956Z,8.31
2023-04-02T02:30:25.408Z,8.34
2023-04-02T02:33:21.845Z,8.32
2023-04-02T02:35:56.154Z,8.17
2023-04-02T02:38:34.677Z,8.25
2023-04-02T02:41:17.059Z,8.23
2023-04-02T02:43:57.617Z,8.24
2023-04-02T02:46:27.723Z,8.18
2023-04-02T02:48:57.900Z,8.28
2023-04-02T02:51:50.795Z,8.25
2023-04-02T02:54:27.212Z,8.24
2023-04-02T02:57:00.177Z,8.24
2023-04-02T02:59:30.905Z,8.31
2023-04-02T03:02:00.523Z,8.37
2023-04-02T03:04:30.768Z,8.40
2023-04-02T03:06:59.228Z,8.43
2023-04-02T03:09:39.532Z,8.42
2023-04-02T03:12:22.449Z,8.43
2023-04-02T03:15:01.249Z,8.34
2023-04-02T03:17:37.226Z,8.25
2023-04-02T03:20:17.918Z,8.30
2023-04-02T03:22:55.356Z,8.27
2023-04-02T03:25:23.765Z,8.26
2023-04-02T03:27:56.848Z,8.37
2023-04-02T03:30:44.274Z,8.30
2023-04-02T03:33:24.166Z,8.26
2023-04-02T03:35:55.200Z,8.10
2023-04-02T03:38:35.115Z,8.16
2023-04-02T03:41:18.081Z,8.15
2023-04-02T03:43:54.903Z,8.15
2023-04-02T03:46:33.839Z,8.15
2023-04-02T03:49:07.728Z,8.19
2023-04-02T03:51:57.712Z,8.21
2023-04-02T03:54:25.089Z,8.31
2023-04-02T03:56:53.458Z,8.37
2023-04-02T03:59:42.916Z,8.42
2023-04-02T04:02:26.825Z,8.37
2023-04-02T04:04:56.324Z,8.48
2023-04-02T04:07:34.502Z,8.63
2023-04-02T04:10:03.301Z,8.63
2023-04-02T04:12:37.130Z,8.60
2023-04-02T04:15:15.471Z,8.58
2023-04-02T04:18:10.634Z,8.52
2023-04-02T04:20:57.122Z,8.48
2023-04-02T04:23:36.872Z,8.58
2023-04-02T04:26:12.777Z,8.47
2023-04-02T04:28:48.512Z,8.53
2023-04-02T04:31:27.304Z,8.60
2023-04-02T04:34:04.022Z,8.74
2023-04-02T04:36:41.601Z,8.78
2023-04-02T04:39:18.163Z,8.75
2023-04-02T04:41:48.894Z,8.74
2023-04-02T04:44:24.660Z,8.71
2023-04-02T04:47:07.495Z,8.65
2023-04-02T04:50:08.869Z,8.58
2023-04-02T04:52:40.569Z,8.60
2023-04-02T04:55:28.738Z,8.59
2023-04-02T04:58:04.146Z,8.59
2023-04-02T05:00:57.755Z,8.51
2023-04-02T05:03:43.604Z,8.46
2023-04-02T05:06:33.959Z,8.41
2023-04-02T05:09:15.775Z,8.34
2023-04-02T05:11:53.064Z,8.39
2023-04-02T05:14:32.109Z,8.30
2023-04-02T05:17:38.250Z,8.24
2023-04-02T05:20:20.664Z,8.19
2023-04-02T05:23:24.061Z,8.22
2023-04-02T05:26:00.589Z,8.18
2023-04-02T05:28:38.971Z,8.23
2023-04-02T05:31:12.550Z,8.23
2023-04-02T05:33:45.619Z,8.11
2023-04-02T05:36:24.494Z,8.11
2023-04-02T05:38:57.602Z,8.25
2023-04-02T05:42:01.787Z,8.26
2023-04-02T05:44:45.840Z,8.36
2023-04-02T05:47:24.392Z,8.30
2023-04-02T05:50:08.741Z,8.34
2023-04-02T05:52:49.524Z,8.20
2023-04-02T05:55:17.088Z,8.35
2023-04-02T05:58:21.383Z,8.34
2023-04-02T06:01:25.344Z,8.07
2023-04-02T06:04:23.353Z,8.06
2023-04-02T06:06:59.597Z,8.06
2023-04-02T06:09:27.836Z,8.00
2023-04-02T06:12:33.873Z,8.03
2023-04-02T06:15:01.376Z,8.05
2023-04-02T06:17:43.622Z,8.11
2023-04-02T06:20:16.682Z,8.19
2023-04-02T06:22:59.942Z,8.14
2023-04-02T06:25:32.548Z,8.34
2023-04-02T06:28:04.607Z,8.25
2023-04-02T06:30:35.803Z,8.37
2023-04-02T06:33:05.274Z,8.38
2023-04-02T06:35:39.044Z,8.59
2023-04-02T06:38:25.609Z,8.62
2023-04-02T06:40:58.947Z,8.65
2023-04-02T06:43:45.539Z,8.75
2023-04-02T06:46:38.886Z,8.91
2023-04-02T06:49:21.715Z,8.97
2023-04-02T06:51:54.537Z,9.11
2023-04-02T06:54:22.010Z,9.06
2023-04-02T06:56:58.865Z,9.14
2023-04-02T06:59:46.247Z,9.01
2023-04-02T07:02:20.641Z,9.12
2023-04-02T07:04:48.218Z,9.19
2023-04-02T07:07:16.703Z,9.27
2023-04-02T07:09:46.215Z,9.09
2023-04-02T07:12:14.281Z,9.07
2023-04-02T07:14:43.049Z,8.98
2023-04-02T07:17:17.948Z,8.96
2023-04-02T07:19:49.255Z,8.96
2023-04-02T07:22:19.391Z,9.06
2023-04-02T07:24:49.838Z,9.04
2023-04-02T07:27:16.917Z,9.05
2023-04-02T07:29:44.088Z,9.03
2023-04-02T07:32:12.419Z,9.17
2023-04-02T07:34:42.458Z,9.20
2023-04-02T07:37:14.181Z,9.00
2023-04-02T07:39:41.883Z,9.10
2023-04-02T07:42:08.969Z,9.26
2023-04-02T07:44:35.975Z,9.26
2023-04-02T07:47:03.125Z,9.33
2023-04-02T07:49:30.164Z,9.47
2023-04-02T07:51:57.229Z,9.34
2023-04-02T07:54:24.341Z,9.35
2023-04-02T07:56:51.431Z,9.35
2023-04-02T07:59:18.441Z,9.50
2023-04-02T08:01:45.932Z,9.41
2023-04-02T08:04:21.547Z,9.36
2023-04-02T08:06:49.678Z,9.43
2023-04-02T08:09:17.641Z,9.54
2023-04-02T08:11:46.665Z,9.54
2023-04-02T08:14:14.355Z,9.54
2023-04-02T08:16:52.571Z,9.56
2023-04-02T08:19:20.033Z,9.53
2023-04-02T08:21:50.659Z,9.55
2023-04-02T08:24:21.584Z,9.57
2023-04-02T08:26:50.062Z,9.63
2023-04-02T08:29:17.222Z,9.40
2023-04-02T08:31:44.211Z,9.40
2023-04-02T08:34:11.269Z,9.20
2023-04-02T08:36:41.740Z,9.14
2023-04-02T08:39:13.908Z,8.96
2023-04-02T08:41:48.483Z,9.02
2023-04-02T08:44:39.982Z,9.05
2023-04-02T08:47:09.958Z,8.95
2023-04-02T08:49:57.948Z,8.79
2023-04-02T08:52:28.874Z,9.04
2023-04-02T08:54:58.025Z,9.17
2023-04-02T08:57:43.945Z,9.20
2023-04-02T09:00:20.498Z,9.12
2023-04-02T09:03:00.933Z,9.28
2023-04-02T09:05:31.974Z,9.23
2023-04-02T09:08:02.964Z,9.19
2023-04-02T09:10:42.733Z,9.35
2023-04-02T09:13:18.638Z,9.34
2023-04-02T09:15:45.869Z,9.22
2023-04-02T09:18:18.192Z,9.22
2023-04-02T09:20:45.716Z,9.17
2023-04-02T09:23:18.792Z,9.17
2023-04-02T09:26:02.901Z,9.10
2023-04-02T09:28:31.841Z,9.16
2023-04-02T09:31:11.685Z,9.28
2023-04-02T09:33:48.466Z,9.36
2023-04-02T09:36:36.013Z,9.37
2023-04-02T09:39:17.777Z,9.30
2023-04-02T09:41:50.265Z,9.21
2023-04-02T09:44:32.005Z,9.10
2023-04-02T09:47:05.493Z,9.02
2023-04-02T09:49:39.990Z,9.12
2023-04-02T09:52:30.982Z,9.15
2023-04-02T09:55:16.419Z,9.21
2023-04-02T09:57:46.336Z,9.27
2023-04-02T10:00:32.121Z,9.29
2023-04-02T10:03:19.713Z,9.30
2023-04-02T10:05:47.664Z,9.34
2023-04-02T10:08:28.235Z,9.26
2023-04-02T10:11:02.017Z,9.33
2023-04-02T10:13:31.326Z,9.46
2023-04-02T10:16:22.684Z,9.69
2023-04-02T10:19:19.035Z,9.69
2023-04-02T10:21:49.268Z,9.81
2023-04-02T10:24:17.619Z,9.76
2023-04-02T10:26:56.595Z,9.95
2023-04-02T10:30:09.599Z,9.99
2023-04-02T10:32:57.925Z,10.25
2023-04-02T10:35:38.825Z,10.39
2023-04-02T10:38:24.452Z,10.54
2023-04-02T10:40:56.459Z,10.58
2023-04-02T10:43:47.544Z,10.96
2023-04-02T10:46:25.485Z,11.13
2023-04-02T10:49:18.288Z,10.81
2023-04-02T10:51:47.773Z,10.98
2023-04-02T10:54:42.668Z,11.26
2023-04-02T10:57:35.017Z,11.12
2023-04-02T11:00:09.633Z,11.05
2023-04-02T11:02:36.717Z,10.97
2023-04-02T11:05:14.050Z,10.89
2023-04-02T11:07:52.639Z,11.00
2023-04-02T11:10:21.238Z,10.85
2023-04-02T11:12:59.268Z,11.06
2023-04-02T11:15:27.443Z,10.75
2023-04-02T11:17:54.896Z,10.77
2023-04-02T11:20:44.163Z,10.78
2023-04-02T11:23:13.698Z,10.92
2023-04-02T11:25:42.592Z,10.73
2023-04-02T11:28:29.428Z,10.78
2023-04-02T11:30:57.866Z,10.78
2023-04-02T11:33:38.113Z,10.81
2023-04-02T11:36:43.957Z,10.98
2023-04-02T11:39:17.419Z,11.14
2023-04-02T11:42:06.842Z,11.12
2023-04-02T11:44:34.937Z,11.02
2023-04-02T11:47:24.634Z,11.00
2023-04-02T11:49:54.901Z,11.05
2023-04-02T11:52:28.917Z,11.29
2023-04-02T11:54:58.880Z,11.28
2023-04-02T11:57:51.879Z,11.21
2023-04-02T12:00:26.530Z,11.29
2023-04-02T12:03:00.157Z,11.21
2023-04-02T12:05:43.291Z,11.31
2023-04-02T12:08:15.238Z,11.42
2023-04-02T12:11:02.493Z,11.31
2023-04-02T12:13:41.768Z,11.38
2023-04-02T12:16:11.230Z,11.29
2023-04-02T12:18:47.254Z,11.31
2023-04-02T12:21:26.904Z,11.34
2023-04-02T12:23:57.948Z,11.29
2023-04-02T12:26:27.998Z,11.36
2023-04-02T12:28:56.394Z,11.56
2023-04-02T12:31:25.329Z,11.66
2023-04-02T12:33:53.235Z,11.69
2023-04-02T12:36:23.739Z,11.75
2023-04-02T12:38:52.466Z,11.79
2023-04-02T12:41:24.455Z,11.81
2023-04-02T12:44:01.851Z,11.99
2023-04-02T12:46:30.958Z,12.03
2023-04-02T12:49:08.542Z,11.86
2023-04-02T12:51:36.650Z,11.68
2023-04-02T12:54:04.448Z,11.72
2023-04-02T12:56:31.548Z,11.73
2023-04-02T12:59:00.713Z,11.82
2023-04-02T13:01:31.713Z,11.83
2023-04-02T13:04:15.200Z,11.83
2023-04-02T13:06:50.120Z,11.75
2023-04-02T13:09:28.823Z,11.73
2023-04-02T13:11:56.149Z,11.59
2023-04-02T13:14:24.723Z,11.63
2023-04-02T13:16:51.898Z,11.61
2023-04-02T13:19:28.508Z,11.71
2023-04-02T13:21:57.872Z,11.73
2023-04-02T13:24:27.568Z,11.83
2023-04-02T13:27:01.112Z,11.91
2023-04-02T13:29:33.268Z,11.89
2023-04-02T13:32:05.997Z,11.70
2023-04-02T13:34:32.938Z,11.74
2023-04-02T13:37:00.032Z,11.75
2023-04-02T13:39:27.347Z,11.89
2023-04-02T13:42:12.967Z,11.99
2023-04-02T13:44:40.300Z,12.03
2023-04-02T13:47:07.536Z,12.13
2023-04-02T13:49:34.582Z,12.16
2023-04-02T13:52:04.437Z,12.25
2023-04-02T13:55:04.463Z,12.22
2023-04-02T13:57:31.625Z,12.20
2023-04-02T13:59:58.670Z,12.27
2023-04-02T14:02:26.118Z,12.33
2023-04-02T14:05:04.147Z,12.27
2023-04-02T14:07:56.011Z,12.24
2023-04-02T14:10:32.318Z,12.13
2023-04-02T14:13:17.812Z,12.17
2023-04-02T14:16:06.043Z,12.10
2023-04-02T14:19:12.814Z,12.00
2023-04-02T14:21:58.258Z,11.98
2023-04-02T14:24:37.388Z,12.08
2023-04-02T14:27:11.218Z,12.05
2023-04-02T14:29:58.351Z,12.01
2023-04-02T14:32:44.206Z,11.97
2023-04-02T14:35:11.710Z,11.93
2023-04-02T14:37:41.619Z,11.96
2023-04-02T14:40:32.154Z,12.06
2023-04-02T14:43:08.461Z,12.08
2023-04-02T14:45:41.482Z,11.98
2023-04-02T14:48:47.869Z,11.98
2023-04-02T14:51:17.578Z,11.92
2023-04-02T14:54:14.862Z,11.87
2023-04-02T14:56:52.336Z,11.84
2023-04-02T14:59:34.563Z,11.77
2023-04-02T15:02:28.068Z,11.67
2023-04-02T15:05:10.034Z,11.67
2023-04-02T15:07:41.953Z,11.69
2023-04-02T15:10:24.870Z,11.73
2023-04-02T15:12:54.114Z,11.71
2023-04-02T15:15:46.933Z,11.69
2023-04-02T15:18:16.821Z,11.63
2023-04-02T15:21:01.360Z,11.64
2023-04-02T15:23:35.207Z,11.60
2023-04-02T15:26:15.917Z,11.63
2023-04-02T15:29:15.841Z,11.59
2023-04-02T15:31:52.032Z,11.52
2023-04-02T15:34:42.365Z,11.56
2023-04-02T15:37:31.016Z,11.53
2023-04-02T15:40:24.116Z,11.52
2023-04-02T15:43:05.205Z,11.43
2023-04-02T15:46:14.314Z,11.40
2023-04-02T15:48:53.443Z,11.34
2023-04-02T15:51:45.082Z,11.36
2023-04-02T15:54:33.390Z,11.35
2023-04-02T15:57:22.369Z,11.35
2023-04-02T15:59:58.022Z,11.31
2023-04-02T16:02:55.664Z,11.40
2023-04-02T16:05:34.786Z,11.40
2023-04-02T16:08:17.064Z,11.40
2023-04-02T16:10:45.780Z,11.35
2023-04-02T16:13:36.590Z,11.34
2023-04-02T16:16:08.701Z,11.36
2023-04-02T16:18:44.854Z,11.30
2023-04-02T16:21:20.857Z,11.27
2023-04-02T16:23:48.581Z,11.30
2023-04-02T16:26:43.429Z,11.34
2023-04-02T16:29:55.302Z,11.31
2023-04-02T16:32:41.079Z,11.29
2023-04-02T16:35:41.664Z,11.16
2023-04-02T16:38:37.870Z,11.18
2023-04-02T16:41:35.699Z,11.25
2023-04-02T16:44:35.970Z,11.23
2023-04-02T16:47:24.723Z,11.27
2023-04-02T16:49:54.824Z,11.24
2023-04-02T16:52:34.108Z,11.26
2023-04-02T16:55:34.064Z,11.28
2023-04-02T16:58:22.420Z,11.37
2023-04-02T17:01:18.556Z,11.36
2023-04-02T17:04:02.220Z,11.37
2023-04-02T17:06:39.820Z,11.42
2023-04-02T17:09:24.061Z,11.40
2023-04-02T17:12:04.621Z,11.38
2023-04-02T17:14:39.178Z,11.38
2023-04-02T17:17:08.942Z,11.38
2023-04-02T17:19:36.426Z,11.42
2023-04-02T17:22:05.739Z,11.43
2023-04-02T17:24:44.596Z,11.37
2023-04-02T17:27:35.638Z,11.36
2023-04-02T17:30:13.349Z,11.34
2023-04-02T17:32:40.570Z,11.22
2023-04-02T17:35:40.415Z,11.21
2023-04-02T17:38:13.366Z,11.15
2023-04-02T17:41:08.173Z,11.13
2023-04-02T17:43:53.859Z,11.12
2023-04-02T17:46:37.800Z,11.06
2023-04-02T17:49:34.173Z,11.10
2023-04-02T17:52:05.827Z,11.05
2023-04-02T17:54:54.700Z,11.07
2023-04-02T17:57:30.784Z,11.00
2023-04-02T18:00:08.789Z,10.96
2023-04-02T18:03:18.751Z,10.93
2023-04-02T18:05:54.558Z,10.94
2023-04-02T18:08:49.158Z,10.94
2023-04-02T18:11:47.067Z,11.01
2023-04-02T18:14:32.929Z,11.04
2023-04-02T18:16:59.925Z,11.07
2023-04-02T18:19:44.778Z,11.03
2023-04-02T18:22:23.191Z,11.10
2023-04-02T18:25:27.784Z,11.08
2023-04-02T18:28:05.847Z,11.08
2023-04-02T18:30:32.962Z,11.04
2023-04-02T18:33:28.642Z,11.10
2023-04-02T18:36:26.495Z,11.15
2023-04-02T18:39:11.031Z,11.17
2023-04-02T18:41:47.792Z,11.18
2023-04-02T18:44:30.334Z,11.21
2023-04-02T18:47:40.707Z,11.23
2023-04-02T18:50:19.935Z,11.22
2023-04-02T18:52:48.738Z,11.20
2023-04-02T18:55:20.562Z,11.23
2023-04-02T18:57:52.755Z,11.15
2023-04-02T19:00:26.359Z,11.21
2023-04-02T19:03:03.078Z,11.12
2023-04-02T19:05:36.409Z,11.21
2023-04-02T19:08:29.087Z,11.25
2023-04-02T19:11:04.390Z,11.18
2023-04-02T19:13:31.805Z,11.19
2023-04-02T19:16:05.957Z,11.25
2023-04-02T19:18:41.634Z,11.19
2023-04-02T19:21:26.888Z,11.24
2023-04-02T19:24:20.124Z,11.34
2023-04-02T19:26:57.277Z,11.33
2023-04-02T19:29:33.130Z,11.34
2023-04-02T19:32:25.515Z,11.37
2023-04-02T19:35:02.887Z,11.29
2023-04-02T19:37:33.094Z,11.32
2023-04-02T19:40:08.667Z,11.35
2023-04-02T19:42:45.032Z,11.33
2023-04-02T19:45:29.022Z,11.34
2023-04-02T19:47:58.866Z,11.38
2023-04-02T19:50:26.096Z,11.35
2023-04-02T19:52:53.076Z,11.42
2023-04-02T19:55:20.433Z,11.41
2023-04-02T19:57:47.604Z,11.40
2023-04-02T20:00:15.951Z,11.36
2023-04-02T20:02:43.024Z,11.27
2023-04-02T20:05:10.213Z,11.24
2023-04-02T20:07:37.341Z,11.14
2023-04-02T20:10:04.689Z,11.10
2023-04-02T20:12:31.678Z,11.06
2023-04-02T20:14:58.662Z,11.05
2023-04-02T20:17:25.783Z,11.04
2023-04-02T20:19:52.886Z,11.04
2023-04-02T20:22:19.929Z,11.06
2023-04-02T20:24:47.102Z,11.02
2023-04-02T20:27:16.027Z,10.99
2023-04-02T20:29:43.136Z,10.96
2023-04-02T20:32:11.075Z,10.95
2023-04-02T20:34:38.071Z,10.93
2023-04-02T20:37:05.239Z,10.98
2023-04-02T20:39:32.311Z,10.96
2023-04-02T20:42:02.985Z,10.96
2023-04-02T20:44:30.072Z,11.03
2023-04-02T20:46:57.613Z,11.00
2023-04-02T20:49:25.739Z,10.91
2023-04-02T20:51:52.889Z,10.97
2023-04-02T20:54:19.921Z,10.94
2023-04-02T20:56:47.483Z,10.95
2023-04-02T20:59:14.578Z,10.85
2023-04-02T21:01:41.741Z,10.84
2023-04-02T21:04:08.995Z,10.89
2023-04-02T21:06:38.626Z,10.92
2023-04-02T21:09:09.163Z,10.88
2023-04-02T21:11:36.973Z,10.91
2023-04-02T21:14:04.563Z,10.93
2023-04-02T21:16:32.288Z,10.91
2023-04-02T21:19:07.771Z,10.97
2023-04-02T21:21:36.361Z,10.92
2023-04-02T21:24:05.767Z,10.97
2023-04-02T21:26:35.396Z,10.95
2023-04-02T21:29:03.001Z,10.94
2023-04-02T21:31:34.023Z,10.96
2023-04-02T21:34:01.367Z,10.94
2023-04-02T21:36:31.756Z,10.92
2023-04-02T21:39:08.090Z,10.89
2023-04-02T21:41:37.614Z,10.93
2023-04-02T21:44:06.974Z,10.89
2023-04-02T21:46:37.176Z,10.90
2023-04-02T21:49:05.752Z,10.92
2023-04-02T21:51:33.851Z,10.93
2023-04-02T21:54:01.737Z,10.99
2023-04-02T21:56:40.594Z,10.96
2023-04-02T21:59:09.736Z,10.97
2023-04-02T22:01:40.132Z,10.98
2023-04-02T22:04:08.859Z,11.02
2023-04-02T22:06:39.255Z,10.97
2023-04-02T22:09:12.283Z,10.94
2023-04-02T22:11:45.928Z,10.89
2023-04-02T22:14:13.366Z,10.92
2023-04-02T22:16:41.234Z,10.89
2023-04-02T22:19:10.812Z,10.87
2023-04-02T22:21:39.209Z,10.86
2023-04-02T22:24:09.381Z,10.87
2023-04-02T22:26:37.031Z,10.85
2023-04-02T22:29:05.181Z,10.82
2023-04-02T22:31:35.124Z,10.87
2023-04-02T22:34:04.709Z,10.83
2023-04-02T22:36:32.320Z,10.84
2023-04-02T22:39:01.303Z,10.80
2023-04-02T22:41:29.778Z,10.81
2023-04-02T22:43:57.755Z,10.78
2023-04-02T22:46:26.812Z,10.77
2023-04-02T22:48:54.871Z,10.75
2023-04-02T22:51:23.301Z,10.69
2023-04-02T22:53:50.670Z,10.67
2023-04-02T22:56:21.743Z,10.60
2023-04-02T22:58:49.362Z,10.57
2023-04-02T23:01:25.936Z,10.58
2023-04-02T23:03:54.740Z,10.53
2023-04-02T23:06:22.264Z,10.51
2023-04-02T23:08:49.352Z,10.50
2023-04-02T23:11:25.029Z,10.51
2023-04-02T23:13:54.903Z,10.53
2023-04-02T23:16:23.180Z,10.46
2023-04-02T23:18:51.001Z,10.50
2023-04-02T23:21:19.140Z,10.54
2023-04-02T23:23:47.194Z,10.61
2023-04-02T23:26:24.543Z,10.60
2023-04-02T23:28:51.782Z,10.62
2023-04-02T23:31:21.631Z,10.66
2023-04-02T23:33:49.611Z,10.65
2023-04-02T23:36:25.340Z,10.69
2023-04-02T23:38:57.049Z,10.71
2023-04-02T23:41:27.017Z,10.73
2023-04-02T23:43:56.018Z,10.69
2023-04-02T23:46:23.667Z,10.69
2023-04-02T23:48:52.174Z,10.62
2023-04-02T23:51:19.469Z,10.59
2023-04-02T23:53:47.942Z,10.53
2023-04-02T23:56:15.007Z,10.47
2023-04-02T23:58:42.032Z,10.53
